Latest Weather Observations for Nambour

IDQ60901

Issued at 11:41 pm EST Wednesday 28 September 2016 (issued every 10 minutes, with the page automatically refreshed every 10 minutes)

About weather observations | Map of Brisbane area stations | Latest observations for Brisbane area | Other Formats
Station Details ID: 040988 Name: NAMBOUR DAFF - HILLSIDE Lat: -26.64 Lon: 152.94 Height: 53.24 m
Data from the previous 72 hours. | See also: Recent months at Nambour
Date/Time
EST
Temp
°C
App
Temp
°C
Dew
Point
°C
Rel
Hum
%
Delta-T
°C
Wind Press
QNH
hPa
Press
MSL
hPa
Rain since
9am
mm
Dir  Spd
km/h
Gust
km/h
Spd
kts
Gust
kts
28/11:30pm 15.1 15.5 11.3 78 2.0 CALM 0 0 0 0 1012.6 1012.5 0.0
28/11:00pm 16.1 16.8 12.1 77 2.2 CALM 0 0 0 0 1012.7 1012.6 0.0
28/10:30pm 15.6 16.1 11.6 77 2.2 CALM 0 0 0 0 1012.9 1012.8 0.0
28/10:00pm 15.6 16.1 11.6 77 2.2 CALM 0 0 0 0 1012.9 1012.8 0.0
28/09:30pm 16.5 17.1 11.9 74 2.5 CALM 0 0 0 0 1013.1 1013.0 0.0
28/09:00pm 15.9 16.3 11.3 74 2.5 CALM 0 0 0 0 1013.4 1013.3 0.0
28/08:30pm 16.0 16.4 11.2 73 2.6 CALM 0 0 0 0 1013.1 1013.0 0.0
28/08:00pm 15.6 15.9 11.0 74 2.5 CALM 0 0 0 0 1012.8 1012.7 0.0
28/07:30pm 16.2 16.3 10.1 67 3.2 CALM 0 0 0 0 1012.7 1012.6 0.0
28/07:00pm 17.7 17.4 10.1 61 4.0 WSW 2 4 1 2 1012.7 1012.6 0.0
28/06:30pm 18.4 18.3 9.5 56 4.7 CALM 0 0 0 0 1012.4 1012.3 0.0
28/06:00pm 19.8 19.6 9.1 50 5.7 CALM 0 4 0 2 1012.2 1012.1 0.0
28/05:30pm 21.1 19.6 8.4 44 6.7 ENE 6 7 3 4 1011.9 1011.8 0.0
28/05:00pm 21.8 19.8 7.2 39 7.5 ENE 7 13 4 7 1011.7 1011.6 0.0
28/04:30pm 22.4 19.4 5.8 34 8.4 ENE 11 19 6 10 1011.5 1011.4 0.0
28/04:00pm 23.1 20.6 6.4 34 8.6 NE 9 15 5 8 1010.9 1010.8 0.0
28/03:30pm 23.1 19.6 5.5 32 8.9 ENE 13 19 7 10 1010.7 1010.5 0.0
28/03:00pm 24.2 20.3 5.5 30 9.5 ENE 15 20 8 11 1011.0 1010.9 0.0
28/02:30pm 24.1 20.3 5.9 31 9.3 E 15 22 8 12 1011.1 1011.0 0.0
28/02:00pm 24.4 20.1 5.2 29 9.7 E 17 24 9 13 1011.4 1011.3 0.0
28/01:30pm 24.7 21.0 6.4 31 9.5 NE 15 28 8 15 1011.7 1011.6 0.0
28/01:00pm 25.1 21.0 6.3 30 9.7 ENE 17 26 9 14 1011.8 1011.7 0.0
28/12:30pm 28.0 24.7 4.3 22 12.1 WSW 11 20 6 11 1012.1 1012.0 0.0
28/12:00pm 27.9 25.5 4.2 22 12.0 WSW 6 13 3 7 1012.3 1012.2 0.0
28/11:30am 26.6 23.9 3.8 23 11.4 ESE 7 17 4 9 1013.0 1012.9 0.0
28/11:00am 26.3 23.9 5.3 26 10.8 E 7 15 4 8 1013.5 1013.4 0.0
28/10:30am 25.7 22.3 4.2 25 10.8 ESE 11 19 6 10 1014.0 1013.9 0.0
28/10:00am 25.5 22.6 4.6 26 10.5 ESE 9 20 5 11 1014.3 1014.2 0.0
28/09:30am 25.0 22.6 4.2 26 10.4 SSE 6 11 3 6 1014.1 1014.0 0.0
28/09:00am 24.7 22.6 3.9 26 10.3 NNW 4 7 2 4 1013.9 1013.8 0.0
28/08:30am 23.6 20.9 3.5 27 9.8 SW 7 15 4 8 1014.2 1014.1 0.0
28/08:00am 22.6 19.9 3.7 29 9.2 SW 7 24 4 13 1014.1 1014.0 0.0
28/07:30am 20.5 19.5 8.8 47 6.2 WNW 4 11 2 6 1014.2 1014.1 0.0
28/07:00am 15.5 15.6 10.3 71 2.7 CALM 0 0 0 0 1013.9 1013.8 0.0
28/06:30am 13.2 13.1 9.3 77 2.0 CALM 0 0 0 0 1013.7 1013.6 0.0
28/06:00am 11.2 10.4 6.7 74 2.1 CALM 0 0 0 0 1013.2 1013.1 0.0
28/05:30am 10.4 9.6 6.4 76 1.9 CALM 0 0 0 0 1012.8 1012.7 0.0
28/05:00am 10.0 9.2 6.3 78 1.7 CALM 0 0 0 0 1012.4 1012.3 0.0
28/04:30am 9.9 8.3 6.3 78 1.7 W 4 6 2 3 1012.0 1011.9 0.0
28/04:00am 10.2 9.3 6.2 76 1.9 CALM 0 0 0 0 1012.0 1011.9 0.0
28/03:30am 10.9 10.0 6.1 72 2.2 CALM 0 0 0 0 1011.9 1011.8 0.0
28/03:00am 11.1 10.1 5.8 70 2.5 CALM 0 0 0 0 1012.0 1011.9 0.0
28/02:30am 11.0 10.0 5.7 70 2.5 CALM 0 0 0 0 1012.1 1012.0 0.0
28/02:00am 10.2 9.2 5.8 74 2.0 CALM 0 0 0 0 1012.3 1012.2 0.0
28/01:30am 11.4 10.3 5.1 65 2.9 CALM 0 6 0 3 1012.4 1012.3 0.0
28/01:00am 11.3 10.3 5.4 67 2.7 CALM 0 2 0 1 1012.6 1012.5 0.0
28/12:30am 11.6 10.7 6.1 69 2.6 CALM 0 0 0 0 1013.0 1012.9 0.0
28/12:00am 11.5 10.6 6.0 69 2.6 CALM 0 0 0 0 1013.1 1013.0 0.0
 
Date/Time
EST
Temp
°C
App
Temp
°C
Dew
Point
°C
Rel
Hum
%
Delta-T
°C
Wind Press
QNH
hPa
Press
MSL
hPa
Rain since
9am
mm
Dir  Spd
km/h
Gust
km/h
Spd
kts
Gust
kts
27/11:30pm 11.9 11.0 6.0 67 2.8 CALM 0 0 0 0 1013.2 1013.1 0.0
27/11:00pm 12.2 11.4 6.5 68 2.7 CALM 0 0 0 0 1013.4 1013.3 0.0
27/10:30pm 12.6 11.8 6.4 66 3.0 CALM 0 0 0 0 1013.5 1013.4 0.0
27/10:00pm 12.7 12.0 7.0 68 2.8 CALM 0 0 0 0 1013.5 1013.4 0.0
27/09:30pm 14.0 13.4 7.3 64 3.3 CALM 0 2 0 1 1013.5 1013.4 0.0
27/09:00pm 13.5 12.9 7.5 67 2.9 CALM 0 0 0 0 1013.6 1013.5 0.0
27/08:30pm 13.6 13.1 7.8 68 2.9 CALM 0 0 0 0 1013.5 1013.4 0.0
27/08:00pm 14.3 13.9 8.3 67 3.0 CALM 0 0 0 0 1013.3 1013.2 0.0
27/07:30pm 15.2 14.8 8.4 64 3.4 CALM 0 0 0 0 1013.1 1013.0 0.0
27/07:00pm 16.0 15.7 8.7 62 3.7 CALM 0 0 0 0 1012.9 1012.8 0.0
27/06:30pm 17.8 17.3 7.8 52 5.1 CALM 0 4 0 2 1012.8 1012.7 0.0
27/06:00pm 18.9 18.3 7.4 47 5.8 CALM 0 0 0 0 1012.3 1012.2 0.0
27/05:30pm 20.4 19.5 6.0 39 7.2 CALM 0 2 0 1 1012.0 1011.9 0.0
27/05:00pm 22.9 20.5 2.4 26 9.7 WSW 4 9 2 5 1011.4 1011.3 0.0
27/04:30pm 23.9 20.9 0.9 22 10.7 W 6 15 3 8 1011.3 1011.2 0.0
27/04:00pm 25.2 22.2 0.7 20 11.5 WNW 6 13 3 7 1011.3 1011.2 0.0
27/03:30pm 25.0 21.3 -0.2 19 11.6 WSW 9 19 5 10 1011.3 1011.2 0.0
27/03:00pm 25.1 21.3 -0.9 18 11.8 WSW 9 15 5 8 1011.8 1011.7 0.0
27/02:30pm 24.8 21.5 0.3 20 11.3 WNW 7 13 4 7 1011.8 1011.7 0.0
27/02:00pm 24.4 21.3 1.3 22 10.9 W 7 13 4 7 1011.9 1011.8 0.0
27/01:30pm 24.1 21.1 1.1 22 10.8 WSW 6 11 3 6 1012.8 1012.7 0.0
27/01:00pm 23.1 19.3 1.5 24 10.1 W 11 20 6 11 1013.0 1012.9 0.0
27/12:30pm 23.2 20.3 1.5 24 10.2 WSW 6 11 3 6 1013.4 1013.3 0.0
27/12:00pm 23.2 20.8 2.1 25 10.0 S 4 9 2 5 1013.7 1013.6 0.0
27/11:30am 22.6 20.2 2.1 26 9.7 ESE 4 11 2 6 1014.1 1014.0 0.0
27/11:00am 22.7 20.1 1.1 24 10.0 ESE 4 11 2 6 1014.3 1014.2 0.0
27/10:30am 22.5 19.0 1.5 25 9.8 WSW 9 19 5 10 1014.9 1014.8 0.0
27/10:00am 22.8 20.1 3.9 29 9.2 WSW 7 15 4 8 1015.1 1015.0 0.0
27/09:30am 22.9 19.6 2.4 26 9.7 SW 9 20 5 11 1014.8 1014.7 0.0
27/09:00am 21.2 17.8 2.0 28 8.9 WSW 9 17 5 9 1014.9 1014.8 0.0
27/08:30am 20.9 17.9 1.7 28 8.9 W 7 15 4 8 1014.7 1014.6 0.0
27/08:00am 20.3 17.5 3.1 32 8.1 SW 7 19 4 10 1014.5 1014.4 0.0
27/07:30am 20.3 18.0 2.6 31 8.3 W 4 13 2 7 1014.5 1014.4 0.0
27/07:00am 18.4 16.2 3.5 37 7.0 SSW 4 13 2 7 1013.6 1013.5 0.0
27/06:30am 17.3 15.3 4.3 42 6.1 SE 4 7 2 4 1013.5 1013.4 0.0
27/06:00am 17.2 14.8 4.5 43 6.0 ESE 6 11 3 6 1012.9 1012.8 0.0
27/05:30am 17.3 15.0 4.9 44 5.9 ESE 6 13 3 7 1012.8 1012.7 0.0
27/05:00am 17.2 14.9 5.8 47 5.6 E 7 13 4 7 1012.4 1012.3 0.0
27/04:30am 17.2 15.6 6.4 49 5.3 ESE 4 7 2 4 1012.2 1012.1 0.0
27/04:00am 17.3 15.4 6.8 50 5.2 SE 6 11 3 6 1011.9 1011.8 0.0
27/03:30am 16.6 15.5 7.0 53 4.8 SW 2 7 1 4 1012.1 1012.0 0.0
27/03:00am 17.2 16.2 7.3 52 5.0 ESE 2 4 1 2 1011.9 1011.8 0.0
27/02:30am 17.3 16.6 7.1 51 5.1 CALM 0 6 0 3 1012.1 1012.0 0.0
27/02:00am 17.9 16.4 7.0 49 5.5 SSE 4 7 2 4 1012.5 1012.4 0.0
27/01:30am 17.0 15.8 7.9 55 4.6 WSW 4 11 2 6 1012.6 1012.5 0.0
27/01:00am 17.0 16.3 8.7 58 4.3 SW 2 4 1 2 1012.9 1012.8 0.0
27/12:30am 16.8 16.8 9.7 63 3.7 CALM 0 4 0 2 1012.9 1012.8 0.0
27/12:00am 16.1 16.7 11.9 76 2.3 CALM 0 0 0 0 1012.7 1012.6 0.0
 
Date/Time
EST
Temp
°C
App
Temp
°C
Dew
Point
°C
Rel
Hum
%
Delta-T
°C
Wind Press
QNH
hPa
Press
MSL
hPa
Rain since
9am
mm
Dir  Spd
km/h
Gust
km/h
Spd
kts
Gust
kts
26/11:30pm 15.4 16.0 11.8 79 2.0 CALM 0 2 0 1 1013.3 1013.2 0.0
26/11:00pm 15.6 16.0 11.4 76 2.3 CALM 0 4 0 2 1013.2 1013.1 0.0
26/10:30pm 15.6 16.2 11.8 78 2.1 CALM 0 0 0 0 1013.3 1013.2 0.0
26/10:00pm 15.1 15.6 11.5 79 1.9 CALM 0 0 0 0 1013.5 1013.4 0.0
26/09:30pm 16.2 16.8 12.0 76 2.3 CALM 0 0 0 0 1013.3 1013.2 0.0
26/09:00pm 17.4 17.4 12.3 72 2.8 WNW 4 6 2 3 1013.1 1013.0 0.0
26/08:30pm 16.7 16.7 12.5 76 2.3 WNW 4 6 2 3 1012.8 1012.7 0.0
26/08:00pm 15.6 15.8 12.0 79 2.0 WNW 2 6 1 3 1012.8 1012.7 0.0
26/07:30pm 16.2 16.8 11.8 75 2.4 CALM 0 4 0 2 1012.2 1012.1 0.0
26/07:00pm 17.4 17.5 11.4 68 3.3 W 2 4 1 2 1012.0 1011.9 0.0
26/06:30pm 18.5 18.7 11.8 65 3.7 W 2 4 1 2 1011.8 1011.7 0.0
26/06:00pm 20.0 19.8 11.8 59 4.6 NNE 4 9 2 5 1011.5 1011.4 0.0
26/05:30pm 20.8 19.9 11.2 54 5.3 NE 7 13 4 7 1011.0 1010.9 0.0
26/05:00pm 21.9 20.6 9.8 46 6.6 NE 7 11 4 6 1010.7 1010.5 0.0
26/04:30pm 22.5 20.2 9.0 42 7.2 ENE 11 15 6 8 1010.4 1010.2 0.0
26/04:00pm 23.2 20.7 8.1 38 8.0 E 11 15 6 8 1010.0 1009.8 0.0
26/03:30pm 23.6 21.6 8.5 38 8.1 E 9 17 5 9 1010.0 1009.8 0.0
26/03:00pm 24.1 21.8 7.3 34 8.8 ENE 9 15 5 8 1010.0 1009.8 0.0
26/02:30pm 24.5 22.1 7.2 33 9.1 ENE 9 17 5 9 1010.0 1009.8 0.0
26/02:00pm 24.8 21.6 7.0 32 9.3 ENE 13 19 7 10 1010.1 1009.9 0.0
26/01:30pm 25.6 23.7 7.7 32 9.5 N 7 13 4 7 1010.5 1010.3 0.0
26/01:00pm 27.2 25.3 4.9 24 11.4 NW 4 11 2 6 1010.9 1010.8 0.0
26/12:30pm 25.9 23.2 3.8 24 11.0 WSW 7 17 4 9 1011.5 1011.4 0.0
26/12:00pm 25.3 22.9 4.4 26 10.5 SSE 6 11 3 6 1011.8 1011.7 0.0
26/11:30am 24.9 22.4 3.5 25 10.5 SE 6 9 3 5 1012.3 1012.2 0.0
26/11:00am 24.6 21.9 3.8 26 10.3 E 7 15 4 8 1012.8 1012.7 0.0
26/10:30am 24.2 21.9 4.6 28 9.8 S 6 11 3 6 1013.2 1013.1 0.0
26/10:00am 24.4 22.0 5.2 29 9.7 WSW 7 17 4 9 1013.4 1013.3 0.0
26/09:30am 24.1 22.0 5.9 31 9.3 W 6 13 3 7 1013.6 1013.5 0.0
26/09:00am 23.4 20.9 4.9 30 9.2 SSW 7 13 4 7 1013.7 1013.6 0.0
26/08:30am 22.4 19.1 4.5 31 8.8 WSW 11 19 6 10 1013.7 1013.6 0.0
26/08:00am 21.8 19.1 5.7 35 8.1 SW 9 17 5 9 1013.7 1013.6 0.0
26/07:30am 20.8 18.1 5.6 37 7.6 SW 9 19 5 10 1013.6 1013.5 0.0
26/07:00am 20.0 18.2 5.6 39 7.1 WSW 4 15 2 8 1013.1 1013.0 0.0
26/06:30am 18.8 17.1 6.0 43 6.3 SW 4 9 2 5 1012.6 1012.5 0.0
26/06:00am 18.3 16.2 5.8 44 6.1 S 6 15 3 8 1012.0 1011.9 0.0
26/05:30am 17.7 16.0 5.9 46 5.8 SSW 4 19 2 10 1011.5 1011.4 0.0
26/05:00am 17.6 15.7 6.5 48 5.5 SSW 6 13 3 7 1011.4 1011.3 0.0
26/04:30am 16.4 15.1 7.6 56 4.4 E 4 9 2 5 1011.1 1011.0 0.0
26/04:00am 14.9 13.9 7.2 60 3.8 E 2 6 1 3 1011.1 1011.0 0.0
26/03:30am 15.4 14.5 7.7 60 3.8 E 2 7 1 4 1011.0 1010.9 0.0
26/03:00am 16.5 15.6 7.7 56 4.4 E 2 6 1 3 1010.8 1010.6 0.0
26/02:30am 15.9 15.5 8.2 60 3.9 CALM 0 6 0 3 1011.0 1010.9 0.0
26/02:00am 15.7 14.9 8.2 61 3.8 W 2 4 1 2 1011.0 1010.9 0.0
26/01:30am 16.0 15.0 7.2 56 4.4 E 2 6 1 3 1011.1 1011.0 0.0
26/01:00am 17.9 16.5 7.3 50 5.3 W 4 9 2 5 1011.3 1011.2 0.0
26/12:30am 16.4 15.0 7.1 54 4.6 WSW 4 6 2 3 1011.4 1011.3 0.0
26/12:00am 16.3 15.4 7.8 57 4.3 WSW 2 6 1 3 1011.4 1011.3 0.0

Latest Capital City Observations: Canberra | Sydney | Melbourne | Brisbane | Adelaide | Perth | Hobart | Darwin

Other Formats:

Comma delimited format used in spreadsheet applications
http://www.bom.gov.au/fwo/IDQ60901/IDQ60901.95572.axf

JavaScript Object Notation format (JSON) in row-major order
http://www.bom.gov.au/fwo/IDQ60901/IDQ60901.95572.json